메인 페이지
METAR-TAF:

METAR-TAF

공항 :

댈러스 / 포트워스, 텍사스, 미국

댈러스 포트워스 국제공항

위도: 32-53-49N, 경도: 097-01-19W, 고도: 183m

현재 날씨관측

예보는 1 시간 1분 전, 07:53시(UTC)에 발표되었습니다.
16kt, 순간 최대 풍속 21kt
온도 18°C
습도 77%
기압 1012 hPa
시정: 16.1km
고도 1400ft 상공 구름 많음
고도 3000ft 상공 구름 많음

METAR: KDFW 210753Z 18016G21KT 10SM BKN014 BKN030 18/14 A2989 RMK AO2 SLP113 T01780144

시각: 02:54 (08:54 UTC)

예보

예보는 3 시간 34분 전, 05:20시(UTC)에 발표되었습니다.
예보 대상 시간: 21일 06시부터 22일 12시까지 (UTC)
17kt
시정: 10km
고도 1100ft 상공 구름 많음
21일 1700시부터 (UTC)
남남서19kt
시정: 10km
고도 2500ft 상공 구름 많음
시계 내 소나기
21일 2000시부터 (UTC)
남남서19kt, 순간 최대 풍속 29kt
시정: 10km
고도 3500ft 상공 구름 많음
21일 2300시부터 (UTC)
남서17kt
시정: 10km
고도 4000ft 상공 구름 보통
22일 0300시부터 (UTC)
서남서17kt
시정: 10km
맑음
22일 0900시부터 (UTC)
16kt
시정: 10km
맑음

TAF: KDFW 210520Z 2106/2212 18017KT P6SM BKN011 FM211700 20019KT P6SM VCSH BKN025 FM212000 21019G29KT P6SM BKN035 FM212300 22017KT P6SM SCT040 FM220300 25017KT P6SM SKC FM220900 28016KT P6SM SKC

4,000개 이상의 공항 관측 자료 및 예보 (METAR 및 TAF 보고).

지도상에서 검색 가능한 기상관측소가 노란 점과 빨간 점으로 표시되어 있습니다.

기상관측소 명을 보려면 표시 위로 마우스를 이동하세요.

날씨 관측과 예보를 보려면 클릭하세요.

지도 변경 : 확대하려면 엑스 표시가 있는 녹색 버튼, 축소하려면 빼기 표시가 있는 녹색 버튼, 다음 페이지의 지도를 보려면 녹색 화살표를 클릭하세요.


METAR-TAF: